sensor_id;sensor_type;location;lat;lon;timestamp;temperature;humidity
46416;DHT22;32620;51.704;7.822;2023-04-03T00:01:36;3.70;1.00
46416;DHT22;32620;51.704;7.822;2023-04-03T00:06:29;3.60;99.90
46416;DHT22;32620;51.704;7.822;2023-04-03T00:08:55;3.60;94.20
46416;DHT22;32620;51.704;7.822;2023-04-03T00:11:20;3.50;99.90
46416;DHT22;32620;51.704;7.822;2023-04-03T00:13:46;3.50;99.90
46416;DHT22;32620;51.704;7.822;2023-04-03T00:16:12;3.50;99.90
46416;DHT22;32620;51.704;7.822;2023-04-03T00:18:39;3.40;99.90
46416;DHT22;32620;51.704;7.822;2023-04-03T00:21:05;3.40;99.90
46416;DHT22;32620;51.704;7.822;2023-04-03T00:23:31;3.40;99.90
46416;DHT22;32620;51.704;7.822;2023-04-03T00:25:57;3.40;99.90
46416;DHT22;32620;51.704;7.822;2023-04-03T00:28:22;3.40;99.90
46416;DHT22;32620;51.704;7.822;2023-04-03T00:30:49;3.40;99.90
46416;DHT22;32620;51.704;7.822;2023-04-03T00:33:15;3.40;99.90
46416;DHT22;32620;51.704;7.822;2023-04-03T00:35:41;3.30;99.90
46416;DHT22;32620;51.704;7.822;2023-04-03T00:38:07;3.20;99.90
46416;DHT22;32620;51.704;7.822;2023-04-03T00:40:36;3.20;99.90
46416;DHT22;32620;51.704;7.822;2023-04-03T00:43:10;3.10;99.90
46416;DHT22;32620;51.704;7.822;2023-04-03T00:45:40;3.20;99.90
46416;DHT22;32620;51.704;7.822;2023-04-03T00:48:08;3.10;99.90
46416;DHT22;32620;51.704;7.822;2023-04-03T00:50:38;3.00;99.90
46416;DHT22;32620;51.704;7.822;2023-04-03T00:53:06;3.00;99.90
46416;DHT22;32620;51.704;7.822;2023-04-03T00:57:58;2.60;1.00
46416;DHT22;32620;51.704;7.822;2023-04-03T01:00:26;2.70;1.00
46416;DHT22;32620;51.704;7.822;2023-04-03T01:02:52;2.80;99.90
46416;DHT22;32620;51.704;7.822;2023-04-03T01:05:19;2.80;99.90
46416;DHT22;32620;51.704;7.822;2023-04-03T01:07:46;2.80;99.90
46416;DHT22;32620;51.704;7.822;2023-04-03T01:10:14;2.80;99.90
46416;DHT22;32620;51.704;7.822;2023-04-03T01:12:43;2.70;99.90
46416;DHT22;32620;51.704;7.822;2023-04-03T01:15:13;2.60;1.00
46416;DHT22;32620;51.704;7.822;2023-04-03T01:17:43;2.70;99.90
46416;DHT22;32620;51.704;7.822;2023-04-03T01:25:49;2.60;1.00
46416;DHT22;32620;51.704;7.822;2023-04-03T01:28:19;2.50;1.00
46416;DHT22;32620;51.704;7.822;2023-04-03T01:30:59;2.50;1.00
46416;DHT22;32620;51.704;7.822;2023-04-03T01:33:25;2.50;1.00
46416;DHT22;32620;51.704;7.822;2023-04-03T01:35:51;2.40;1.00
46416;DHT22;32620;51.704;7.822;2023-04-03T01:38:17;2.40;1.00
46416;DHT22;32620;51.704;7.822;2023-04-03T01:40:42;2.40;1.00
46416;DHT22;32620;51.704;7.822;2023-04-03T01:43:08;2.30;1.00
46416;DHT22;32620;51.704;7.822;2023-04-03T01:45:34;2.20;1.00
46416;DHT22;32620;51.704;7.822;2023-04-03T01:48:00;2.20;1.00
46416;DHT22;32620;51.704;7.822;2023-04-03T01:50:25;2.30;1.00
46416;DHT22;32620;51.704;7.822;2023-04-03T01:52:51;2.30;1.00
46416;DHT22;32620;51.704;7.822;2023-04-03T01:55:16;2.30;1.00
46416;DHT22;32620;51.704;7.822;2023-04-03T01:57:42;2.20;1.00
46416;DHT22;32620;51.704;7.822;2023-04-03T02:00:08;2.20;1.00
46416;DHT22;32620;51.704;7.822;2023-04-03T02:02:34;2.20;1.00
46416;DHT22;32620;51.704;7.822;2023-04-03T02:05:00;2.20;1.00
46416;DHT22;32620;51.704;7.822;2023-04-03T02:07:25;2.10;1.00
46416;DHT22;32620;51.704;7.822;2023-04-03T02:09:51;2.10;1.00
46416;DHT22;32620;51.704;7.822;2023-04-03T02:12:16;2.10;1.00
46416;DHT22;32620;51.704;7.822;2023-04-03T02:14:42;2.00;1.00
46416;DHT22;32620;51.704;7.822;2023-04-03T02:17:08;2.00;1.00
46416;DHT22;32620;51.704;7.822;2023-04-03T02:19:34;2.00;1.00
46416;DHT22;32620;51.704;7.822;2023-04-03T02:22:01;1.90;1.00
46416;DHT22;32620;51.704;7.822;2023-04-03T02:24:27;2.00;1.00
46416;DHT22;32620;51.704;7.822;2023-04-03T02:26:53;2.00;1.00
46416;DHT22;32620;51.704;7.822;2023-04-03T02:29:19;1.90;1.00
46416;DHT22;32620;51.704;7.822;2023-04-03T02:31:44;1.80;1.00
46416;DHT22;32620;51.704;7.822;2023-04-03T02:34:10;1.80;1.00
46416;DHT22;32620;51.704;7.822;2023-04-03T02:36:36;1.80;1.00
46416;DHT22;32620;51.704;7.822;2023-04-03T02:39:01;1.70;1.00
46416;DHT22;32620;51.704;7.822;2023-04-03T02:41:27;1.70;1.00
46416;DHT22;32620;51.704;7.822;2023-04-03T02:43:59;1.70;1.00
46416;DHT22;32620;51.704;7.822;2023-04-03T02:46:24;1.60;1.00
46416;DHT22;32620;51.704;7.822;2023-04-03T02:48:50;1.60;1.00
46416;DHT22;32620;51.704;7.822;2023-04-03T02:51:16;1.50;1.00
46416;DHT22;32620;51.704;7.822;2023-04-03T02:53:41;1.60;1.00
46416;DHT22;32620;51.704;7.822;2023-04-03T02:56:07;1.50;1.00
46416;DHT22;32620;51.704;7.822;2023-04-03T02:58:32;1.50;1.00
46416;DHT22;32620;51.704;7.822;2023-04-03T03:00:58;1.40;1.00
46416;DHT22;32620;51.704;7.822;2023-04-03T03:03:23;1.30;1.00
46416;DHT22;32620;51.704;7.822;2023-04-03T03:05:49;1.30;1.00
46416;DHT22;32620;51.704;7.822;2023-04-03T03:08:14;1.30;1.00
46416;DHT22;32620;51.704;7.822;2023-04-03T03:10:40;1.40;1.00
46416;DHT22;32620;51.704;7.822;2023-04-03T03:13:05;1.30;1.00
46416;DHT22;32620;51.704;7.822;2023-04-03T03:15:31;1.30;1.00
46416;DHT22;32620;51.704;7.822;2023-04-03T03:17:56;1.30;1.00
46416;DHT22;32620;51.704;7.822;2023-04-03T03:20:22;1.30;1.00
46416;DHT22;32620;51.704;7.822;2023-04-03T03:22:47;1.30;1.00
46416;DHT22;32620;51.704;7.822;2023-04-03T03:25:13;1.30;1.00
46416;DHT22;32620;51.704;7.822;2023-04-03T03:27:39;1.20;1.00
46416;DHT22;32620;51.704;7.822;2023-04-03T03:30:05;1.20;1.00
46416;DHT22;32620;51.704;7.822;2023-04-03T03:32:31;1.10;1.00
46416;DHT22;32620;51.704;7.822;2023-04-03T03:34:56;1.10;1.00
46416;DHT22;32620;51.704;7.822;2023-04-03T03:37:22;1.10;1.00
46416;DHT22;32620;51.704;7.822;2023-04-03T03:39:47;1.00;3.20
46416;DHT22;32620;51.704;7.822;2023-04-03T03:42:13;0.90;4.60
46416;DHT22;32620;51.704;7.822;2023-04-03T03:44:38;0.90;6.90
46416;DHT22;32620;51.704;7.822;2023-04-03T03:47:04;0.90;9.20
46416;DHT22;32620;51.704;7.822;2023-04-03T03:49:31;0.90;8.10
46416;DHT22;32620;51.704;7.822;2023-04-03T03:51:56;0.80;10.10
46416;DHT22;32620;51.704;7.822;2023-04-03T03:54:22;0.80;13.50
46416;DHT22;32620;51.704;7.822;2023-04-03T03:56:47;0.80;12.90
46416;DHT22;32620;51.704;7.822;2023-04-03T03:59:13;0.70;16.80
46416;DHT22;32620;51.704;7.822;2023-04-03T04:01:39;0.70;25.60
46416;DHT22;32620;51.704;7.822;2023-04-03T04:04:05;0.70;27.10
46416;DHT22;32620;51.704;7.822;2023-04-03T04:06:30;0.70;22.80
46416;DHT22;32620;51.704;7.822;2023-04-03T04:08:56;0.70;18.40
46416;DHT22;32620;51.704;7.822;2023-04-03T04:11:21;0.60;17.70
46416;DHT22;32620;51.704;7.822;2023-04-03T04:13:47;0.60;26.20
46416;DHT22;32620;51.704;7.822;2023-04-03T04:16:12;0.60;29.90
46416;DHT22;32620;51.704;7.822;2023-04-03T04:18:38;0.60;27.90
46416;DHT22;32620;51.704;7.822;2023-04-03T04:21:04;0.60;32.20
46416;DHT22;32620;51.704;7.822;2023-04-03T04:23:29;0.60;25.70
46416;DHT22;32620;51.704;7.822;2023-04-03T04:25:55;0.60;27.00
46416;DHT22;32620;51.704;7.822;2023-04-03T04:28:20;0.60;25.00
46416;DHT22;32620;51.704;7.822;2023-04-03T04:30:46;0.60;24.70
46416;DHT22;32620;51.704;7.822;2023-04-03T04:33:11;0.50;24.30
46416;DHT22;32620;51.704;7.822;2023-04-03T04:35:39;0.40;24.40
46416;DHT22;32620;51.704;7.822;2023-04-03T04:38:04;0.40;32.40
46416;DHT22;32620;51.704;7.822;2023-04-03T04:40:30;0.30;34.60
46416;DHT22;32620;51.704;7.822;2023-04-03T04:42:56;0.40;40.50
46416;DHT22;32620;51.704;7.822;2023-04-03T04:45:21;0.40;34.00
46416;DHT22;32620;51.704;7.822;2023-04-03T04:47:47;0.30;31.50
46416;DHT22;32620;51.704;7.822;2023-04-03T04:50:12;0.40;30.00
46416;DHT22;32620;51.704;7.822;2023-04-03T04:52:38;0.30;32.70
46416;DHT22;32620;51.704;7.822;2023-04-03T04:55:04;0.30;28.80
46416;DHT22;32620;51.704;7.822;2023-04-03T04:57:30;0.30;29.50
46416;DHT22;32620;51.704;7.822;2023-04-03T04:59:56;0.40;27.60
46416;DHT22;32620;51.704;7.822;2023-04-03T05:02:21;0.40;21.20
46416;DHT22;32620;51.704;7.822;2023-04-03T05:04:47;0.40;16.80
46416;DHT22;32620;51.704;7.822;2023-04-03T05:07:12;0.40;14.50
46416;DHT22;32620;51.704;7.822;2023-04-03T05:09:38;0.30;21.40
46416;DHT22;32620;51.704;7.822;2023-04-03T05:12:04;0.20;18.80
46416;DHT22;32620;51.704;7.822;2023-04-03T05:14:29;0.20;25.10
46416;DHT22;32620;51.704;7.822;2023-04-03T05:16:55;0.20;24.60
46416;DHT22;32620;51.704;7.822;2023-04-03T05:19:21;0.20;25.40
46416;DHT22;32620;51.704;7.822;2023-04-03T05:21:47;0.40;23.60
46416;DHT22;32620;51.704;7.822;2023-04-03T05:24:14;0.50;12.30
46416;DHT22;32620;51.704;7.822;2023-04-03T05:26:40;0.70;1.00
46416;DHT22;32620;51.704;7.822;2023-04-03T05:29:05;0.80;1.00
46416;DHT22;32620;51.704;7.822;2023-04-03T05:31:31;0.80;1.00
46416;DHT22;32620;51.704;7.822;2023-04-03T05:33:57;0.80;1.00
46416;DHT22;32620;51.704;7.822;2023-04-03T05:36:23;0.80;1.00
46416;DHT22;32620;51.704;7.822;2023-04-03T05:38:48;0.90;1.00
46416;DHT22;32620;51.704;7.822;2023-04-03T05:41:15;1.10;1.00
46416;DHT22;32620;51.704;7.822;2023-04-03T05:43:41;1.20;1.00
46416;DHT22;32620;51.704;7.822;2023-04-03T05:46:10;1.40;1.00
46416;DHT22;32620;51.704;7.822;2023-04-03T05:48:36;1.80;1.00
46416;DHT22;32620;51.704;7.822;2023-04-03T05:51:02;2.40;99.90
46416;DHT22;32620;51.704;7.822;2023-04-03T05:53:29;3.50;1.00
46416;DHT22;32620;51.704;7.822;2023-04-03T05:55:56;3.70;99.90
46416;DHT22;32620;51.704;7.822;2023-04-03T05:58:22;4.90;99.90
46416;DHT22;32620;51.704;7.822;2023-04-03T06:00:47;4.30;99.90
46416;DHT22;32620;51.704;7.822;2023-04-03T06:03:13;5.30;1.00
46416;DHT22;32620;51.704;7.822;2023-04-03T06:05:39;5.50;99.90
46416;DHT22;32620;51.704;7.822;2023-04-03T06:08:04;5.90;99.90
46416;DHT22;32620;51.704;7.822;2023-04-03T06:10:31;5.40;99.90
46416;DHT22;32620;51.704;7.822;2023-04-03T06:12:56;6.40;99.90
46416;DHT22;32620;51.704;7.822;2023-04-03T06:15:22;6.30;99.90
46416;DHT22;32620;51.704;7.822;2023-04-03T06:17:48;5.80;99.90
46416;DHT22;32620;51.704;7.822;2023-04-03T06:20:13;5.50;99.90
46416;DHT22;32620;51.704;7.822;2023-04-03T06:22:39;5.50;99.90
46416;DHT22;32620;51.704;7.822;2023-04-03T06:25:05;5.20;99.90
46416;DHT22;32620;51.704;7.822;2023-04-03T06:27:31;5.60;99.90
46416;DHT22;32620;51.704;7.822;2023-04-03T06:29:57;7.20;1.00
46416;DHT22;32620;51.704;7.822;2023-04-03T06:32:22;7.30;99.90
46416;DHT22;32620;51.704;7.822;2023-04-03T06:34:48;7.60;1.00
46416;DHT22;32620;51.704;7.822;2023-04-03T06:37:21;7.70;99.90
46416;DHT22;32620;51.704;7.822;2023-04-03T06:39:47;8.60;18.40
46416;DHT22;32620;51.704;7.822;2023-04-03T06:42:13;8.00;99.90
46416;DHT22;32620;51.704;7.822;2023-04-03T06:44:38;8.50;99.90
46416;DHT22;32620;51.704;7.822;2023-04-03T06:47:04;7.50;99.90
46416;DHT22;32620;51.704;7.822;2023-04-03T06:49:31;8.60;1.00
46416;DHT22;32620;51.704;7.822;2023-04-03T06:51:57;9.00;1.00
46416;DHT22;32620;51.704;7.822;2023-04-03T06:54:22;8.70;99.90
46416;DHT22;32620;51.704;7.822;2023-04-03T06:56:48;8.50;1.00
46416;DHT22;32620;51.704;7.822;2023-04-03T06:59:14;8.10;99.90
46416;DHT22;32620;51.704;7.822;2023-04-03T07:01:42;8.00;99.90
46416;DHT22;32620;51.704;7.822;2023-04-03T07:04:08;9.10;10.20
46416;DHT22;32620;51.704;7.822;2023-04-03T07:06:34;9.80;1.00
46416;DHT22;32620;51.704;7.822;2023-04-03T07:09:00;9.00;99.90
46416;DHT22;32620;51.704;7.822;2023-04-03T07:11:26;7.80;1.00
46416;DHT22;32620;51.704;7.822;2023-04-03T07:13:52;8.80;1.00
46416;DHT22;32620;51.704;7.822;2023-04-03T07:16:18;9.60;99.90
46416;DHT22;32620;51.704;7.822;2023-04-03T07:18:44;9.00;99.90
46416;DHT22;32620;51.704;7.822;2023-04-03T07:21:10;9.40;99.90
46416;DHT22;32620;51.704;7.822;2023-04-03T07:23:35;9.40;99.90
46416;DHT22;32620;51.704;7.822;2023-04-03T07:26:01;9.60;56.60
46416;DHT22;32620;51.704;7.822;2023-04-03T07:28:27;9.20;99.90
46416;DHT22;32620;51.704;7.822;2023-04-03T07:31:03;10.30;40.20
46416;DHT22;32620;51.704;7.822;2023-04-03T07:33:29;10.90;1.00
46416;DHT22;32620;51.704;7.822;2023-04-03T07:35:56;10.60;1.00
46416;DHT22;32620;51.704;7.822;2023-04-03T07:38:22;9.10;1.00
46416;DHT22;32620;51.704;7.822;2023-04-03T07:40:49;9.20;1.00
46416;DHT22;32620;51.704;7.822;2023-04-03T07:43:16;9.80;1.00
46416;DHT22;32620;51.704;7.822;2023-04-03T07:45:42;9.40;1.00
46416;DHT22;32620;51.704;7.822;2023-04-03T07:48:10;9.60;1.00
46416;DHT22;32620;51.704;7.822;2023-04-03T07:50:36;10.30;1.00
46416;DHT22;32620;51.704;7.822;2023-04-03T07:53:02;9.60;1.00
46416;DHT22;32620;51.704;7.822;2023-04-03T07:55:28;10.80;1.00
46416;DHT22;32620;51.704;7.822;2023-04-03T07:57:53;11.60;99.90
46416;DHT22;32620;51.704;7.822;2023-04-03T08:00:19;11.40;99.90
46416;DHT22;32620;51.704;7.822;2023-04-03T08:02:45;11.50;99.90
46416;DHT22;32620;51.704;7.822;2023-04-03T08:05:16;10.60;99.90
46416;DHT22;32620;51.704;7.822;2023-04-03T08:07:42;9.70;99.90
46416;DHT22;32620;51.704;7.822;2023-04-03T08:10:08;9.70;1.00
46416;DHT22;32620;51.704;7.822;2023-04-03T08:12:34;10.70;99.90
46416;DHT22;32620;51.704;7.822;2023-04-03T08:15:00;10.20;99.90
46416;DHT22;32620;51.704;7.822;2023-04-03T08:17:26;10.50;99.90
46416;DHT22;32620;51.704;7.822;2023-04-03T08:19:52;10.60;99.90
46416;DHT22;32620;51.704;7.822;2023-04-03T08:22:17;10.30;99.90
46416;DHT22;32620;51.704;7.822;2023-04-03T08:24:43;10.30;99.90
46416;DHT22;32620;51.704;7.822;2023-04-03T08:27:08;11.50;99.90
46416;DHT22;32620;51.704;7.822;2023-04-03T08:29:34;11.80;99.90
46416;DHT22;32620;51.704;7.822;2023-04-03T08:32:00;10.60;99.90
46416;DHT22;32620;51.704;7.822;2023-04-03T08:34:25;10.70;99.90
46416;DHT22;32620;51.704;7.822;2023-04-03T08:36:51;10.10;99.90
46416;DHT22;32620;51.704;7.822;2023-04-03T08:39:16;9.50;99.90
46416;DHT22;32620;51.704;7.822;2023-04-03T08:41:44;9.80;99.90
46416;DHT22;32620;51.704;7.822;2023-04-03T08:44:25;9.50;99.90
46416;DHT22;32620;51.704;7.822;2023-04-03T08:47:14;11.00;99.90
46416;DHT22;32620;51.704;7.822;2023-04-03T08:50:05;10.70;1.00
46416;DHT22;32620;51.704;7.822;2023-04-03T08:52:43;11.00;1.00
46416;DHT22;32620;51.704;7.822;2023-04-03T08:55:29;10.70;1.00
46416;DHT22;32620;51.704;7.822;2023-04-03T08:58:02;9.80;1.00
46416;DHT22;32620;51.704;7.822;2023-04-03T09:00:32;9.60;99.90
46416;DHT22;32620;51.704;7.822;2023-04-03T09:03:00;10.20;99.90
46416;DHT22;32620;51.704;7.822;2023-04-03T09:05:41;10.90;99.90
46416;DHT22;32620;51.704;7.822;2023-04-03T09:08:30;10.60;99.90
46416;DHT22;32620;51.704;7.822;2023-04-03T09:11:18;10.30;99.90
46416;DHT22;32620;51.704;7.822;2023-04-03T09:16:45;9.30;99.90
46416;DHT22;32620;51.704;7.822;2023-04-03T09:19:38;9.90;1.00
46416;DHT22;32620;51.704;7.822;2023-04-03T09:22:27;10.90;27.90
46416;DHT22;32620;51.704;7.822;2023-04-03T09:25:05;10.40;99.90
46416;DHT22;32620;51.704;7.822;2023-04-03T09:27:35;10.30;99.90
46416;DHT22;32620;51.704;7.822;2023-04-03T09:30:01;10.10;1.00
46416;DHT22;32620;51.704;7.822;2023-04-03T09:32:29;9.60;1.00
46416;DHT22;32620;51.704;7.822;2023-04-03T09:34:59;9.80;1.00
46416;DHT22;32620;51.704;7.822;2023-04-03T09:37:37;9.90;1.00
46416;DHT22;32620;51.704;7.822;2023-04-03T09:40:04;10.00;1.00
46416;DHT22;32620;51.704;7.822;2023-04-03T09:42:31;9.60;1.00
46416;DHT22;32620;51.704;7.822;2023-04-03T09:45:00;9.90;1.00
46416;DHT22;32620;51.704;7.822;2023-04-03T09:47:31;9.90;1.00
46416;DHT22;32620;51.704;7.822;2023-04-03T09:50:20;10.30;1.00
46416;DHT22;32620;51.704;7.822;2023-04-03T09:52:49;11.00;1.00
46416;DHT22;32620;51.704;7.822;2023-04-03T09:55:19;10.90;1.00
46416;DHT22;32620;51.704;7.822;2023-04-03T09:57:52;10.60;1.00
46416;DHT22;32620;51.704;7.822;2023-04-03T10:00:22;9.90;28.00
46416;DHT22;32620;51.704;7.822;2023-04-03T10:02:52;10.50;4.60
46416;DHT22;32620;51.704;7.822;2023-04-03T10:08:23;10.70;5.50
46416;DHT22;32620;51.704;7.822;2023-04-03T10:11:07;9.90;64.50
46416;DHT22;32620;51.704;7.822;2023-04-03T10:13:35;9.90;68.90
46416;DHT22;32620;51.704;7.822;2023-04-03T10:16:10;9.70;69.90
46416;DHT22;32620;51.704;7.822;2023-04-03T10:18:42;10.40;68.70
46416;DHT22;32620;51.704;7.822;2023-04-03T10:21:20;10.20;67.90
46416;DHT22;32620;51.704;7.822;2023-04-03T10:23:55;9.60;68.90
46416;DHT22;32620;51.704;7.822;2023-04-03T10:27:04;10.60;75.30
46416;DHT22;32620;51.704;7.822;2023-04-03T10:29:59;10.90;68.50
46416;DHT22;32620;51.704;7.822;2023-04-03T10:32:43;10.40;68.90
46416;DHT22;32620;51.704;7.822;2023-04-03T10:35:35;9.90;69.20
46416;DHT22;32620;51.704;7.822;2023-04-03T10:38:47;9.90;68.00
46416;DHT22;32620;51.704;7.822;2023-04-03T10:46:38;10.20;72.40
46416;DHT22;32620;51.704;7.822;2023-04-03T10:49:25;10.20;66.20
46416;DHT22;32620;51.704;7.822;2023-04-03T10:52:02;9.40;69.50
46416;DHT22;32620;51.704;7.822;2023-04-03T10:54:55;9.80;75.10
46416;DHT22;32620;51.704;7.822;2023-04-03T10:57:23;10.20;71.50
46416;DHT22;32620;51.704;7.822;2023-04-03T10:59:53;10.50;71.50
46416;DHT22;32620;51.704;7.822;2023-04-03T11:02:27;10.70;72.50
46416;DHT22;32620;51.704;7.822;2023-04-03T11:04:59;10.50;71.70
46416;DHT22;32620;51.704;7.822;2023-04-03T11:07:30;10.40;75.70
46416;DHT22;32620;51.704;7.822;2023-04-03T11:10:03;10.50;73.30
46416;DHT22;32620;51.704;7.822;2023-04-03T11:12:52;10.20;73.90
46416;DHT22;32620;51.704;7.822;2023-04-03T11:15:30;9.40;70.40
46416;DHT22;32620;51.704;7.822;2023-04-03T11:18:02;8.80;74.80
46416;DHT22;32620;51.704;7.822;2023-04-03T11:20:30;8.80;75.80
46416;DHT22;32620;51.704;7.822;2023-04-03T11:25:53;9.20;79.70
46416;DHT22;32620;51.704;7.822;2023-04-03T11:28:19;8.80;73.10
46416;DHT22;32620;51.704;7.822;2023-04-03T11:34:30;9.10;73.90
46416;DHT22;32620;51.704;7.822;2023-04-03T11:36:50;8.80;75.30
46416;DHT22;32620;51.704;7.822;2023-04-03T11:39:32;8.70;76.80
46416;DHT22;32620;51.704;7.822;2023-04-03T11:50:57;8.70;76.20
46416;DHT22;32620;51.704;7.822;2023-04-03T11:59:14;8.30;75.10
46416;DHT22;32620;51.704;7.822;2023-04-03T12:01:55;8.40;74.90
46416;DHT22;32620;51.704;7.822;2023-04-03T12:04:23;8.50;75.20
46416;DHT22;32620;51.704;7.822;2023-04-03T12:07:15;8.50;78.00
46416;DHT22;32620;51.704;7.822;2023-04-03T12:12:30;8.90;73.70
46416;DHT22;32620;51.704;7.822;2023-04-03T12:15:47;9.20;79.50
46416;DHT22;32620;51.704;7.822;2023-04-03T12:17:57;8.70;76.90
46416;DHT22;32620;51.704;7.822;2023-04-03T12:20:58;9.20;81.30
46416;DHT22;32620;51.704;7.822;2023-04-03T12:23:29;9.00;78.80
46416;DHT22;32620;51.704;7.822;2023-04-03T12:26:19;8.00;76.40
46416;DHT22;32620;51.704;7.822;2023-04-03T12:28:47;7.90;79.40
46416;DHT22;32620;51.704;7.822;2023-04-03T12:31:14;7.90;83.50
46416;DHT22;32620;51.704;7.822;2023-04-03T12:34:04;8.10;73.30
46416;DHT22;32620;51.704;7.822;2023-04-03T12:39:53;8.30;75.50
46416;DHT22;32620;51.704;7.822;2023-04-03T12:45:20;8.50;69.70
46416;DHT22;32620;51.704;7.822;2023-04-03T12:47:49;8.60;70.30
46416;DHT22;32620;51.704;7.822;2023-04-03T12:50:32;9.10;72.50
46416;DHT22;32620;51.704;7.822;2023-04-03T12:53:11;9.20;68.80
46416;DHT22;32620;51.704;7.822;2023-04-03T12:55:38;9.60;67.70
46416;DHT22;32620;51.704;7.822;2023-04-03T12:58:25;8.90;69.80
46416;DHT22;32620;51.704;7.822;2023-04-03T13:01:01;8.50;71.00
46416;DHT22;32620;51.704;7.822;2023-04-03T13:03:28;8.40;72.70
46416;DHT22;32620;51.704;7.822;2023-04-03T13:05:59;8.60;75.10
46416;DHT22;32620;51.704;7.822;2023-04-03T13:08:25;8.50;70.00
46416;DHT22;32620;51.704;7.822;2023-04-03T13:10:55;8.10;73.20
46416;DHT22;32620;51.704;7.822;2023-04-03T13:13:22;8.20;78.10
46416;DHT22;32620;51.704;7.822;2023-04-03T13:15:49;8.30;78.10
46416;DHT22;32620;51.704;7.822;2023-04-03T13:18:32;8.20;78.60
46416;DHT22;32620;51.704;7.822;2023-04-03T13:21:13;8.40;78.10
46416;DHT22;32620;51.704;7.822;2023-04-03T13:23:41;8.40;75.00
46416;DHT22;32620;51.704;7.822;2023-04-03T13:26:09;8.80;75.80
46416;DHT22;32620;51.704;7.822;2023-04-03T13:28:35;8.60;74.30
46416;DHT22;32620;51.704;7.822;2023-04-03T13:31:15;8.80;75.20
46416;DHT22;32620;51.704;7.822;2023-04-03T13:34:07;9.00;75.10
46416;DHT22;32620;51.704;7.822;2023-04-03T13:36:43;8.90;76.70
46416;DHT22;32620;51.704;7.822;2023-04-03T13:41:50;8.80;73.90
46416;DHT22;32620;51.704;7.822;2023-04-03T13:44:27;8.80;79.40
46416;DHT22;32620;51.704;7.822;2023-04-03T13:46:57;8.80;82.80
46416;DHT22;32620;51.704;7.822;2023-04-03T13:49:37;9.20;85.20
46416;DHT22;32620;51.704;7.822;2023-04-03T13:52:26;9.20;83.50
46416;DHT22;32620;51.704;7.822;2023-04-03T13:54:55;8.90;81.70
46416;DHT22;32620;51.704;7.822;2023-04-03T13:57:21;8.80;83.30
46416;DHT22;32620;51.704;7.822;2023-04-03T13:59:47;9.30;81.80
46416;DHT22;32620;51.704;7.822;2023-04-03T14:02:33;9.60;84.70
46416;DHT22;32620;51.704;7.822;2023-04-03T14:05:00;9.30;84.90
46416;DHT22;32620;51.704;7.822;2023-04-03T14:07:29;9.10;81.20
46416;DHT22;32620;51.704;7.822;2023-04-03T14:09:55;8.70;80.00
46416;DHT22;32620;51.704;7.822;2023-04-03T14:12:27;8.20;77.10
46416;DHT22;32620;51.704;7.822;2023-04-03T14:14:54;7.90;83.20
46416;DHT22;32620;51.704;7.822;2023-04-03T14:17:23;8.40;76.60
46416;DHT22;32620;51.704;7.822;2023-04-03T14:19:50;8.50;75.40
46416;DHT22;32620;51.704;7.822;2023-04-03T14:22:24;8.50;74.60
46416;DHT22;32620;51.704;7.822;2023-04-03T14:24:51;8.40;74.60
46416;DHT22;32620;51.704;7.822;2023-04-03T14:27:20;8.60;74.70
46416;DHT22;32620;51.704;7.822;2023-04-03T14:29:48;8.40;74.20
46416;DHT22;32620;51.704;7.822;2023-04-03T14:32:17;8.30;74.50
46416;DHT22;32620;51.704;7.822;2023-04-03T14:34:44;8.70;74.80
46416;DHT22;32620;51.704;7.822;2023-04-03T14:37:15;8.40;74.40
46416;DHT22;32620;51.704;7.822;2023-04-03T14:39:41;8.40;76.30
46416;DHT22;32620;51.704;7.822;2023-04-03T14:42:12;8.60;75.60
46416;DHT22;32620;51.704;7.822;2023-04-03T14:44:38;8.80;52.00
46416;DHT22;32620;51.704;7.822;2023-04-03T14:47:04;8.60;59.10
46416;DHT22;32620;51.704;7.822;2023-04-03T14:49:30;8.50;62.90
46416;DHT22;32620;51.704;7.822;2023-04-03T14:51:57;8.60;60.70
46416;DHT22;32620;51.704;7.822;2023-04-03T14:54:23;8.60;58.80
46416;DHT22;32620;51.704;7.822;2023-04-03T14:56:54;8.50;60.00
46416;DHT22;32620;51.704;7.822;2023-04-03T14:59:21;8.50;63.20
46416;DHT22;32620;51.704;7.822;2023-04-03T15:01:47;8.30;62.70
46416;DHT22;32620;51.704;7.822;2023-04-03T15:04:15;8.30;63.60
46416;DHT22;32620;51.704;7.822;2023-04-03T15:06:42;8.10;63.10
46416;DHT22;32620;51.704;7.822;2023-04-03T15:09:19;8.50;59.60
46416;DHT22;32620;51.704;7.822;2023-04-03T15:11:46;8.50;57.40
46416;DHT22;32620;51.704;7.822;2023-04-03T15:14:11;8.00;58.90
46416;DHT22;32620;51.704;7.822;2023-04-03T15:16:37;8.00;55.90
46416;DHT22;32620;51.704;7.822;2023-04-03T15:19:02;8.30;55.90
46416;DHT22;32620;51.704;7.822;2023-04-03T15:21:28;8.20;54.80
46416;DHT22;32620;51.704;7.822;2023-04-03T15:23:53;8.20;55.00
46416;DHT22;32620;51.704;7.822;2023-04-03T15:26:19;8.10;54.70
46416;DHT22;32620;51.704;7.822;2023-04-03T15:28:46;8.00;55.30
46416;DHT22;32620;51.704;7.822;2023-04-03T15:31:12;8.00;54.80
46416;DHT22;32620;51.704;7.822;2023-04-03T15:33:38;8.10;55.70
46416;DHT22;32620;51.704;7.822;2023-04-03T15:36:04;8.10;55.30
46416;DHT22;32620;51.704;7.822;2023-04-03T15:38:30;8.20;55.40
46416;DHT22;32620;51.704;7.822;2023-04-03T15:40:56;8.20;55.80
46416;DHT22;32620;51.704;7.822;2023-04-03T15:43:21;8.20;54.70
46416;DHT22;32620;51.704;7.822;2023-04-03T15:45:47;8.00;54.80
46416;DHT22;32620;51.704;7.822;2023-04-03T15:48:16;8.00;54.20
46416;DHT22;32620;51.704;7.822;2023-04-03T15:50:41;8.10;54.60
46416;DHT22;32620;51.704;7.822;2023-04-03T15:53:08;8.20;55.50
46416;DHT22;32620;51.704;7.822;2023-04-03T15:55:36;8.20;54.20
46416;DHT22;32620;51.704;7.822;2023-04-03T15:58:02;8.20;54.30
46416;DHT22;32620;51.704;7.822;2023-04-03T16:00:28;8.20;54.50
46416;DHT22;32620;51.704;7.822;2023-04-03T16:02:59;8.10;54.40
46416;DHT22;32620;51.704;7.822;2023-04-03T16:05:26;8.10;54.60
46416;DHT22;32620;51.704;7.822;2023-04-03T16:07:52;7.90;55.10
46416;DHT22;32620;51.704;7.822;2023-04-03T16:10:19;8.00;54.10
46416;DHT22;32620;51.704;7.822;2023-04-03T16:12:45;8.10;55.60
46416;DHT22;32620;51.704;7.822;2023-04-03T16:15:11;8.10;54.60
46416;DHT22;32620;51.704;7.822;2023-04-03T16:17:37;8.20;54.00
46416;DHT22;32620;51.704;7.822;2023-04-03T16:20:04;8.10;54.20
46416;DHT22;32620;51.704;7.822;2023-04-03T16:22:31;7.90;53.70
46416;DHT22;32620;51.704;7.822;2023-04-03T16:24:57;7.80;53.30
46416;DHT22;32620;51.704;7.822;2023-04-03T16:27:23;7.80;53.90
46416;DHT22;32620;51.704;7.822;2023-04-03T16:29:54;7.80;54.30
46416;DHT22;32620;51.704;7.822;2023-04-03T16:32:20;8.00;52.20
46416;DHT22;32620;51.704;7.822;2023-04-03T16:34:46;8.00;53.50
46416;DHT22;32620;51.704;7.822;2023-04-03T16:37:12;8.20;40.00
46416;DHT22;32620;51.704;7.822;2023-04-03T16:39:37;8.10;22.50
46416;DHT22;32620;51.704;7.822;2023-04-03T16:42:03;8.00;20.00
46416;DHT22;32620;51.704;7.822;2023-04-03T16:44:28;8.00;99.90
46416;DHT22;32620;51.704;7.822;2023-04-03T16:46:54;7.70;1.00
46416;DHT22;32620;51.704;7.822;2023-04-03T16:49:20;7.70;1.00
46416;DHT22;32620;51.704;7.822;2023-04-03T16:51:47;7.70;1.00
46416;DHT22;32620;51.704;7.822;2023-04-03T16:54:13;7.60;1.00
46416;DHT22;32620;51.704;7.822;2023-04-03T16:56:39;7.60;1.00